createdAt,value
2017-09-27T00:02:02.285Z,6.60
2017-09-27T00:04:35.841Z,7.00
2017-09-27T00:07:10.401Z,7.40
2017-09-27T00:09:44.002Z,7.10
2017-09-27T00:12:17.694Z,7.07
2017-09-27T00:14:51.282Z,7.60
2017-09-27T00:17:24.905Z,7.10
2017-09-27T00:19:59.138Z,6.33
2017-09-27T00:22:32.843Z,8.57
2017-09-27T00:25:06.414Z,7.00
2017-09-27T00:27:40.130Z,6.93
2017-09-27T00:30:14.414Z,7.00
2017-09-27T00:32:48.029Z,7.97
2017-09-27T00:35:21.709Z,7.37
2017-09-27T00:37:55.445Z,7.23
2017-09-27T00:40:28.918Z,6.87
2017-09-27T00:43:02.541Z,6.20
2017-09-27T00:45:36.115Z,7.27
2017-09-27T00:48:09.766Z,7.10
2017-09-27T00:50:43.230Z,6.97
2017-09-27T00:53:16.758Z,6.50
2017-09-27T00:55:50.461Z,6.97
2017-09-27T00:58:24.082Z,8.30
2017-09-27T01:00:58.402Z,8.20
2017-09-27T01:03:31.942Z,7.20
2017-09-27T01:06:05.552Z,7.17
2017-09-27T01:08:39.782Z,6.63
2017-09-27T01:11:14.315Z,7.23
2017-09-27T01:13:47.885Z,6.70
2017-09-27T01:16:21.478Z,7.97
2017-09-27T01:18:55.231Z,7.10
2017-09-27T01:21:28.809Z,7.37
2017-09-27T01:24:02.366Z,6.43
2017-09-27T01:26:36.137Z,6.70
2017-09-27T01:29:09.825Z,7.13
2017-09-27T01:31:43.533Z,7.27
2017-09-27T01:34:18.067Z,6.67
2017-09-27T01:36:51.741Z,6.67
2017-09-27T01:39:25.337Z,7.00
2017-09-27T01:41:58.898Z,6.67
2017-09-27T01:44:32.562Z,6.70
2017-09-27T01:47:06.129Z,7.13
2017-09-27T01:49:39.853Z,6.70
2017-09-27T01:52:13.511Z,6.83
2017-09-27T01:54:47.042Z,7.67
2017-09-27T01:57:20.865Z,6.40
2017-09-27T01:59:54.430Z,7.10
2017-09-27T02:02:28.017Z,6.03
2017-09-27T02:05:01.691Z,8.30
2017-09-27T02:07:35.231Z,7.37
2017-09-27T02:10:09.069Z,5.50
2017-09-27T02:12:42.578Z,6.47
2017-09-27T02:15:16.029Z,8.00
2017-09-27T02:17:49.675Z,7.53
2017-09-27T02:20:23.885Z,7.33
2017-09-27T02:22:57.453Z,7.60
2017-09-27T02:25:31.070Z,7.20
2017-09-27T02:28:04.590Z,7.60
2017-09-27T02:30:38.289Z,7.17
2017-09-27T02:33:12.594Z,7.10
2017-09-27T02:35:47.146Z,6.97
2017-09-27T02:38:20.740Z,7.10
2017-09-27T02:40:54.399Z,6.33
2017-09-27T02:43:28.011Z,7.30
2017-09-27T02:46:01.640Z,7.17
2017-09-27T02:48:35.219Z,7.60
2017-09-27T02:51:08.838Z,7.23
2017-09-27T02:53:42.433Z,7.07
2017-09-27T02:56:15.911Z,7.33
2017-09-27T02:58:49.496Z,6.83
2017-09-27T03:01:23.142Z,8.43
2017-09-27T03:03:56.736Z,8.27
2017-09-27T03:06:30.338Z,7.10
2017-09-27T03:09:05.373Z,7.50
2017-09-27T03:11:38.982Z,6.87
2017-09-27T03:14:12.583Z,8.50
2017-09-27T03:16:46.146Z,6.87
2017-09-27T03:19:19.764Z,6.93
2017-09-27T03:21:54.098Z,6.07
2017-09-27T03:24:27.769Z,6.40
2017-09-27T03:27:01.599Z,8.23
2017-09-27T03:29:36.030Z,7.53
2017-09-27T03:32:09.632Z,8.60
2017-09-27T03:34:43.662Z,7.13
2017-09-27T03:37:17.294Z,7.97
2017-09-27T03:39:51.096Z,8.73
2017-09-27T03:42:24.813Z,7.60
2017-09-27T03:44:58.413Z,8.47
2017-09-27T03:47:32.160Z,7.50
2017-09-27T03:50:05.759Z,7.87
2017-09-27T03:52:39.560Z,8.17
2017-09-27T03:55:13.164Z,8.87
2017-09-27T03:57:46.877Z,9.30
2017-09-27T04:00:20.582Z,8.53
2017-09-27T04:02:54.382Z,8.00
2017-09-27T04:05:28.096Z,8.37
2017-09-27T04:08:01.657Z,8.30
2017-09-27T04:10:35.487Z,8.10
2017-09-27T04:13:09.078Z,8.70
2017-09-27T04:15:42.686Z,8.67
2017-09-27T04:18:16.253Z,8.10
2017-09-27T04:20:49.840Z,8.60
2017-09-27T04:23:23.681Z,8.03
2017-09-27T04:25:57.322Z,8.30
2017-09-27T04:28:30.926Z,7.93
2017-09-27T04:31:04.522Z,7.30
2017-09-27T04:33:38.062Z,7.23
2017-09-27T04:36:11.653Z,6.13
2017-09-27T04:38:45.400Z,7.40
2017-09-27T04:41:18.941Z,7.10
2017-09-27T04:43:52.796Z,6.40
2017-09-27T04:46:26.396Z,7.00
2017-09-27T04:48:59.996Z,7.70
2017-09-27T04:51:34.294Z,7.40
2017-09-27T04:54:07.922Z,12.47
2017-09-27T04:56:41.417Z,8.83
2017-09-27T04:59:15.018Z,7.03
2017-09-27T05:01:48.594Z,8.10
2017-09-27T05:04:22.241Z,7.27
2017-09-27T05:06:55.833Z,6.90
2017-09-27T05:09:29.483Z,7.20
2017-09-27T05:12:03.117Z,6.33
2017-09-27T05:14:36.687Z,7.33
2017-09-27T05:17:10.439Z,6.40
2017-09-27T05:19:44.594Z,6.53
2017-09-27T05:22:19.037Z,7.93
2017-09-27T05:24:52.746Z,7.20
2017-09-27T05:27:26.482Z,7.47
2017-09-27T05:30:00.183Z,6.83
2017-09-27T05:32:33.838Z,8.70
2017-09-27T05:35:07.377Z,7.20
2017-09-27T05:37:40.937Z,7.60
2017-09-27T05:40:14.678Z,7.30
2017-09-27T05:42:48.383Z,7.13
2017-09-27T05:45:21.974Z,7.97
2017-09-27T05:47:55.567Z,7.10
2017-09-27T05:50:29.058Z,7.07
2017-09-27T05:53:02.782Z,6.63
2017-09-27T05:55:36.280Z,7.87
2017-09-27T05:58:10.662Z,7.40
2017-09-27T06:00:44.412Z,7.20
2017-09-27T06:03:17.986Z,7.70
2017-09-27T06:05:51.605Z,7.90
2017-09-27T06:08:25.211Z,7.83
2017-09-27T06:10:59.706Z,7.13
2017-09-27T06:13:33.417Z,7.00
2017-09-27T06:16:07.845Z,6.67
2017-09-27T06:18:41.468Z,6.97
2017-09-27T06:21:15.174Z,6.70
2017-09-27T06:23:48.751Z,6.90
2017-09-27T06:26:22.352Z,6.40
2017-09-27T06:28:55.958Z,6.53
2017-09-27T06:31:29.566Z,6.70
2017-09-27T06:34:03.280Z,6.60
2017-09-27T06:36:36.818Z,6.20
2017-09-27T06:39:10.429Z,6.27
2017-09-27T06:41:43.971Z,7.00
2017-09-27T06:44:17.558Z,8.27
2017-09-27T06:46:51.293Z,6.80
2017-09-27T06:49:24.937Z,7.23
2017-09-27T06:51:58.580Z,6.87
2017-09-27T06:54:32.867Z,6.50
2017-09-27T06:57:07.212Z,6.70
2017-09-27T06:59:40.816Z,6.77
2017-09-27T07:02:14.457Z,7.20
2017-09-27T07:04:48.910Z,6.80
2017-09-27T07:07:22.521Z,6.70
2017-09-27T07:09:56.121Z,7.57
2017-09-27T07:12:29.618Z,6.73
2017-09-27T07:15:03.205Z,7.00
2017-09-27T07:17:36.750Z,7.10
2017-09-27T07:20:11.158Z,6.30
2017-09-27T07:22:44.632Z,7.40
2017-09-27T07:25:18.557Z,6.87
2017-09-27T07:27:52.381Z,6.93
2017-09-27T07:30:26.171Z,7.53
2017-09-27T07:32:59.860Z,6.57
2017-09-27T07:35:33.434Z,7.47
2017-09-27T07:38:07.178Z,7.50
2017-09-27T07:40:40.605Z,7.80
2017-09-27T07:43:14.234Z,7.70
2017-09-27T07:45:48.089Z,8.37
2017-09-27T07:48:21.678Z,8.33
2017-09-27T07:50:55.326Z,9.70
2017-09-27T07:53:28.882Z,8.60
2017-09-27T07:56:02.329Z,9.90
2017-09-27T07:58:35.984Z,9.60
2017-09-27T08:01:09.514Z,9.63
2017-09-27T08:03:44.131Z,9.30
2017-09-27T08:06:18.514Z,9.90
2017-09-27T08:08:52.833Z,9.23
2017-09-27T08:11:26.402Z,9.20
2017-09-27T08:14:00.033Z,9.87
2017-09-27T08:16:33.605Z,8.93
2017-09-27T08:19:07.233Z,9.97
2017-09-27T08:21:40.838Z,9.83
2017-09-27T08:24:14.650Z,9.90
2017-09-27T08:26:48.221Z,8.97
2017-09-27T08:29:21.846Z,9.43
2017-09-27T08:31:55.445Z,8.53
2017-09-27T08:34:29.016Z,12.50
2017-09-27T08:37:02.723Z,13.80
2017-09-27T08:39:36.682Z,10.83
2017-09-27T08:42:10.499Z,13.20
2017-09-27T08:44:44.476Z,25.10
2017-09-27T08:47:18.038Z,17.00
2017-09-27T08:49:51.706Z,8.90
2017-09-27T08:52:26.028Z,8.43
2017-09-27T08:55:00.859Z,10.30
2017-09-27T08:57:34.461Z,8.63
2017-09-27T09:00:08.144Z,8.30
2017-09-27T09:02:41.773Z,9.37
2017-09-27T09:05:15.402Z,9.37
2017-09-27T09:07:50.069Z,9.47
2017-09-27T09:10:24.718Z,9.50
2017-09-27T09:12:59.208Z,9.73
2017-09-27T09:15:32.762Z,9.30
2017-09-27T09:21:05.778Z,8.97
2017-09-27T09:23:40.197Z,10.03
2017-09-27T09:26:13.677Z,12.77
2017-09-27T09:28:48.026Z,10.40
2017-09-27T09:31:21.562Z,10.83
2017-09-27T09:33:55.090Z,11.83
2017-09-27T09:36:29.426Z,9.87
2017-09-27T09:39:03.642Z,10.83
2017-09-27T09:41:37.178Z,12.40
2017-09-27T09:44:11.469Z,12.87
2017-09-27T09:46:45.054Z,13.03
2017-09-27T09:52:18.649Z,12.13
2017-09-27T09:54:52.326Z,11.80
2017-09-27T09:57:25.908Z,10.27
2017-09-27T09:59:59.598Z,10.33
2017-09-27T10:02:33.330Z,10.50
2017-09-27T10:05:07.831Z,10.90
2017-09-27T10:07:42.361Z,10.90
2017-09-27T10:10:16.133Z,11.80
2017-09-27T10:12:49.973Z,10.87
2017-09-27T10:15:23.680Z,11.50
2017-09-27T10:17:57.369Z,10.43
2017-09-27T10:20:31.162Z,11.33
2017-09-27T10:23:04.802Z,10.87
2017-09-27T10:25:38.391Z,10.70
2017-09-27T10:28:13.238Z,10.53
2017-09-27T10:30:47.037Z,12.50
2017-09-27T10:33:20.824Z,11.77
2017-09-27T10:35:54.612Z,10.73
2017-09-27T10:38:28.333Z,9.97
2017-09-27T10:41:02.688Z,11.33
2017-09-27T10:43:36.548Z,12.17
2017-09-27T10:46:10.126Z,13.03
2017-09-27T10:48:43.982Z,11.50
2017-09-27T10:51:17.434Z,11.03
2017-09-27T10:53:50.996Z,10.30
2017-09-27T10:56:24.559Z,10.70
2017-09-27T10:58:58.161Z,11.60
2017-09-27T11:01:31.661Z,10.83
2017-09-27T11:04:05.183Z,10.70
2017-09-27T11:06:38.850Z,11.10
2017-09-27T11:09:12.688Z,11.23
2017-09-27T11:11:46.277Z,10.47
2017-09-27T11:14:19.722Z,10.30
2017-09-27T11:16:53.382Z,9.90
2017-09-27T11:19:27.675Z,9.30
2017-09-27T11:22:01.313Z,9.00
2017-09-27T11:24:34.987Z,10.47
2017-09-27T11:27:08.490Z,7.63
2017-09-27T11:29:41.950Z,10.33
2017-09-27T11:32:15.617Z,10.20
2017-09-27T11:34:49.265Z,9.97
2017-09-27T11:37:22.789Z,9.67
2017-09-27T11:39:57.255Z,9.60
2017-09-27T11:42:30.765Z,9.80
2017-09-27T11:45:04.421Z,10.33
2017-09-27T11:47:37.951Z,8.67
2017-09-27T11:50:11.774Z,9.53
2017-09-27T11:52:45.407Z,9.07
2017-09-27T11:55:18.934Z,8.43
2017-09-27T11:57:53.758Z,9.10
2017-09-27T12:00:29.265Z,8.23
2017-09-27T12:03:03.097Z,7.93
2017-09-27T12:05:36.645Z,7.80
2017-09-27T12:08:10.354Z,7.83
2017-09-27T12:10:44.123Z,7.83
2017-09-27T12:13:17.700Z,8.97
2017-09-27T12:15:51.314Z,8.87
2017-09-27T12:18:24.898Z,9.37
2017-09-27T12:20:58.510Z,9.30
2017-09-27T12:23:32.527Z,9.77
2017-09-27T12:26:06.187Z,10.90
2017-09-27T12:28:39.738Z,10.30
2017-09-27T12:31:14.972Z,9.90
2017-09-27T12:33:48.562Z,8.63
2017-09-27T12:36:22.333Z,9.20
2017-09-27T12:38:56.392Z,9.50
2017-09-27T12:41:30.157Z,9.47
2017-09-27T12:44:03.873Z,9.00
2017-09-27T12:46:38.505Z,10.70
2017-09-27T12:49:12.599Z,8.70
2017-09-27T12:51:46.429Z,10.20
2017-09-27T12:54:19.865Z,8.43
2017-09-27T12:56:53.408Z,8.87
2017-09-27T12:59:27.822Z,9.63
2017-09-27T13:02:02.041Z,9.67
2017-09-27T13:04:36.450Z,9.13
2017-09-27T13:07:10.029Z,8.70
2017-09-27T13:09:43.666Z,9.63
2017-09-27T13:12:18.106Z,10.97
2017-09-27T13:14:51.554Z,9.50
2017-09-27T13:17:25.134Z,8.43
2017-09-27T13:19:58.614Z,9.83
2017-09-27T13:22:32.157Z,8.00
2017-09-27T13:25:06.382Z,7.80
2017-09-27T13:27:39.957Z,9.67
2017-09-27T13:30:13.466Z,8.73
2017-09-27T13:32:46.985Z,9.90
2017-09-27T13:35:20.498Z,9.47
2017-09-27T13:37:54.089Z,9.27
2017-09-27T13:40:28.497Z,7.90
2017-09-27T13:43:02.026Z,9.33
2017-09-27T13:45:35.566Z,9.50
2017-09-27T13:48:09.097Z,11.30
2017-09-27T13:50:43.325Z,18.40
2017-09-27T13:53:16.913Z,16.00
2017-09-27T13:55:50.474Z,9.60
2017-09-27T13:58:24.122Z,8.53
2017-09-27T14:00:57.635Z,8.47
2017-09-27T14:03:31.126Z,8.40
2017-09-27T14:06:05.425Z,7.67
2017-09-27T14:08:39.014Z,8.13
2017-09-27T14:11:12.658Z,7.93
2017-09-27T14:13:47.057Z,7.60
2017-09-27T14:16:21.358Z,8.40
2017-09-27T14:18:54.999Z,8.70
2017-09-27T14:21:28.450Z,9.00
2017-09-27T14:24:02.098Z,7.90
2017-09-27T14:26:35.973Z,8.50
2017-09-27T14:29:09.626Z,9.10
2017-09-27T14:31:43.194Z,8.10
2017-09-27T14:34:16.666Z,8.77
2017-09-27T14:36:50.994Z,7.20
2017-09-27T14:39:24.520Z,8.40
2017-09-27T14:41:58.057Z,8.67
2017-09-27T14:44:31.738Z,9.43
2017-09-27T14:47:05.170Z,7.87
2017-09-27T14:49:39.430Z,8.03
2017-09-27T14:52:12.921Z,8.40
2017-09-27T14:54:47.222Z,8.13
2017-09-27T14:57:20.786Z,8.40
2017-09-27T14:59:54.326Z,8.43
2017-09-27T15:02:28.537Z,7.90
2017-09-27T15:05:02.076Z,8.73
2017-09-27T15:07:35.736Z,8.80
2017-09-27T15:10:09.372Z,8.47
2017-09-27T15:12:43.651Z,8.33
2017-09-27T15:15:18.074Z,7.70
2017-09-27T15:17:52.413Z,7.23
2017-09-27T15:20:25.911Z,9.37
2017-09-27T15:23:00.114Z,8.57
2017-09-27T15:25:34.534Z,8.20
2017-09-27T15:28:08.747Z,9.20
2017-09-27T15:30:42.275Z,9.23
2017-09-27T15:33:15.723Z,7.60
2017-09-27T15:35:49.297Z,8.60
2017-09-27T15:38:23.557Z,7.60
2017-09-27T15:40:57.086Z,8.40
2017-09-27T15:43:31.371Z,8.20
2017-09-27T15:46:05.846Z,8.50
2017-09-27T15:48:39.486Z,8.10
2017-09-27T15:51:12.922Z,7.67
2017-09-27T15:53:46.378Z,8.30
2017-09-27T15:56:20.711Z,6.90
2017-09-27T15:58:55.022Z,7.73
2017-09-27T16:01:29.237Z,8.07
2017-09-27T16:04:03.446Z,7.47
2017-09-27T16:06:37.870Z,6.87
2017-09-27T16:09:12.070Z,9.20
2017-09-27T16:11:46.403Z,8.80
2017-09-27T16:14:20.662Z,7.63
2017-09-27T16:16:54.191Z,9.63
2017-09-27T16:19:27.829Z,8.87
2017-09-27T16:22:02.044Z,8.60
2017-09-27T16:24:35.514Z,8.07
2017-09-27T16:27:09.042Z,7.57
2017-09-27T16:29:42.557Z,9.40
2017-09-27T16:32:16.262Z,7.70
2017-09-27T16:34:50.437Z,7.40
2017-09-27T16:37:24.098Z,7.97
2017-09-27T16:39:58.371Z,6.50
2017-09-27T16:42:31.900Z,7.60
2017-09-27T16:45:06.170Z,6.60
2017-09-27T16:47:39.992Z,7.03
2017-09-27T16:50:13.618Z,8.87
2017-09-27T16:52:47.099Z,16.83
2017-09-27T16:55:20.683Z,15.73
2017-09-27T16:57:54.115Z,8.73
2017-09-27T17:00:27.557Z,7.37
2017-09-27T17:03:01.078Z,6.70
2017-09-27T17:05:34.585Z,7.03
2017-09-27T17:08:08.262Z,6.90
2017-09-27T17:10:41.761Z,6.33
2017-09-27T17:13:15.420Z,6.80
2017-09-27T17:15:49.695Z,7.50
2017-09-27T17:18:23.323Z,6.80
2017-09-27T17:20:56.836Z,6.17
2017-09-27T17:23:31.126Z,6.57
2017-09-27T17:26:05.333Z,6.10
2017-09-27T17:28:39.038Z,6.90
2017-09-27T17:31:13.442Z,6.00
2017-09-27T17:33:47.123Z,6.80
2017-09-27T17:36:20.637Z,6.50
2017-09-27T17:38:54.162Z,7.20
2017-09-27T17:41:27.825Z,6.30
2017-09-27T17:44:01.347Z,6.93
2017-09-27T17:46:34.869Z,6.97
2017-09-27T17:49:08.424Z,6.60
2017-09-27T17:51:42.775Z,6.80
2017-09-27T17:54:17.021Z,7.63
2017-09-27T17:56:50.586Z,6.83
2017-09-27T17:59:24.127Z,7.50
2017-09-27T18:01:57.561Z,6.63
2017-09-27T18:04:36.779Z,7.20
2017-09-27T18:07:15.985Z,6.10
2017-09-27T18:13:08.778Z,7.10
2017-09-27T18:15:55.058Z,6.63
2017-09-27T18:18:30.526Z,5.93
2017-09-27T18:21:04.353Z,8.00
2017-09-27T18:23:38.620Z,6.83
2017-09-27T18:26:12.978Z,6.90
2017-09-27T18:28:46.608Z,10.50
2017-09-27T18:31:20.819Z,16.57
2017-09-27T18:33:54.423Z,10.80
2017-09-27T18:36:28.130Z,7.47
2017-09-27T18:39:01.760Z,6.50
2017-09-27T18:41:35.225Z,6.20
2017-09-27T18:44:08.805Z,7.50
2017-09-27T18:46:43.150Z,6.47
2017-09-27T18:49:16.730Z,6.33
2017-09-27T18:51:50.372Z,7.40
2017-09-27T18:54:24.042Z,6.70
2017-09-27T18:56:58.261Z,6.73
2017-09-27T18:59:32.453Z,6.50
2017-09-27T19:02:06.229Z,7.20
2017-09-27T19:04:39.691Z,7.80
2017-09-27T19:07:13.382Z,7.60
2017-09-27T19:09:47.803Z,7.23
2017-09-27T19:12:21.336Z,6.87
2017-09-27T19:14:55.614Z,7.17
2017-09-27T19:17:30.026Z,7.20
2017-09-27T19:20:04.246Z,8.17
2017-09-27T19:22:37.790Z,6.53
2017-09-27T19:25:11.297Z,7.63
2017-09-27T19:27:44.861Z,6.60
2017-09-27T19:30:18.529Z,7.03
2017-09-27T19:32:52.050Z,6.10
2017-09-27T19:35:26.305Z,7.63
2017-09-27T19:37:59.946Z,7.20
2017-09-27T19:40:34.259Z,6.90
2017-09-27T19:43:07.770Z,7.17
2017-09-27T19:45:41.286Z,6.83
2017-09-27T19:48:15.498Z,6.43
2017-09-27T19:50:49.070Z,7.50
2017-09-27T19:53:22.517Z,7.00
2017-09-27T19:55:56.023Z,6.60
2017-09-27T19:58:29.478Z,8.27
2017-09-27T20:01:03.002Z,6.13
2017-09-27T20:03:36.523Z,9.23
2017-09-27T20:06:10.162Z,6.70
2017-09-27T20:08:43.837Z,6.70
2017-09-27T20:11:17.313Z,7.27
2017-09-27T20:13:51.606Z,8.20
2017-09-27T20:16:25.181Z,12.20
2017-09-27T20:18:58.699Z,9.53
2017-09-27T20:21:32.205Z,8.07
2017-09-27T20:24:05.736Z,7.17
2017-09-27T20:26:39.997Z,7.20
2017-09-27T20:29:13.514Z,8.03
2017-09-27T20:31:47.075Z,6.57
2017-09-27T20:34:20.534Z,7.20
2017-09-27T20:36:54.824Z,7.40
2017-09-27T20:39:28.364Z,7.57
2017-09-27T20:42:01.881Z,7.17
2017-09-27T20:44:35.529Z,6.33
2017-09-27T20:47:09.050Z,8.50
2017-09-27T20:49:42.567Z,6.50
2017-09-27T20:52:15.997Z,7.67
2017-09-27T20:54:49.449Z,7.13
2017-09-27T20:57:23.722Z,7.57
2017-09-27T20:59:57.254Z,7.53
2017-09-27T21:02:30.757Z,6.27
2017-09-27T21:05:04.422Z,7.50
2017-09-27T21:07:37.920Z,7.33
2017-09-27T21:10:11.374Z,7.27
2017-09-27T21:12:45.758Z,7.60
2017-09-27T21:15:20.165Z,7.23
2017-09-27T21:17:53.766Z,7.80
2017-09-27T21:20:27.307Z,7.77
2017-09-27T21:23:00.943Z,7.33
2017-09-27T21:25:34.389Z,7.80
2017-09-27T21:28:07.918Z,7.10
2017-09-27T21:30:41.568Z,7.80
2017-09-27T21:33:15.810Z,8.77
2017-09-27T21:35:49.522Z,8.60
2017-09-27T21:38:23.320Z,14.30
2017-09-27T21:40:56.881Z,32.33
2017-09-27T21:43:30.421Z,16.33
2017-09-27T21:46:04.712Z,17.57
2017-09-27T21:48:38.350Z,24.87
2017-09-27T21:51:12.038Z,11.40
2017-09-27T21:53:45.515Z,8.20
2017-09-27T21:56:19.142Z,8.47
2017-09-27T21:58:52.650Z,9.20
2017-09-27T22:01:26.342Z,8.50
2017-09-27T22:04:00.043Z,8.00
2017-09-27T22:06:33.639Z,8.83
2017-09-27T22:09:07.350Z,7.97
2017-09-27T22:11:40.853Z,7.87
2017-09-27T22:14:14.446Z,8.40
2017-09-27T22:16:48.175Z,9.10
2017-09-27T22:19:21.733Z,8.70
2017-09-27T22:21:55.373Z,10.10
2017-09-27T22:24:29.154Z,8.63
2017-09-27T22:27:03.165Z,8.40
2017-09-27T22:29:37.655Z,8.60
2017-09-27T22:32:11.289Z,8.97
2017-09-27T22:34:44.756Z,8.00
2017-09-27T22:37:18.389Z,8.30
2017-09-27T22:39:52.202Z,8.77
2017-09-27T22:42:26.226Z,8.00
2017-09-27T22:45:00.866Z,8.70
2017-09-27T22:47:34.430Z,9.20
2017-09-27T22:50:07.921Z,8.77
2017-09-27T22:52:41.536Z,8.20
2017-09-27T22:55:15.231Z,9.53
2017-09-27T22:57:48.921Z,9.03
2017-09-27T23:00:22.478Z,9.03
2017-09-27T23:02:56.031Z,9.27
2017-09-27T23:05:29.631Z,7.90
2017-09-27T23:08:03.442Z,9.57
2017-09-27T23:10:37.146Z,9.83
2017-09-27T23:13:10.618Z,9.17
2017-09-27T23:15:45.174Z,9.10
2017-09-27T23:18:18.775Z,8.50
2017-09-27T23:20:52.430Z,9.37
2017-09-27T23:23:26.887Z,10.80
2017-09-27T23:26:00.442Z,9.57
2017-09-27T23:28:35.012Z,9.40
2017-09-27T23:31:08.466Z,8.70
2017-09-27T23:33:42.093Z,9.20
2017-09-27T23:36:15.852Z,8.43
2017-09-27T23:38:50.830Z,8.97
2017-09-27T23:41:24.514Z,9.93
2017-09-27T23:43:58.149Z,8.53
2017-09-27T23:46:31.766Z,8.40
2017-09-27T23:49:05.353Z,9.60
2017-09-27T23:51:39.170Z,8.73
2017-09-27T23:54:13.677Z,9.17
2017-09-27T23:56:47.250Z,8.90
2017-09-27T23:59:20.977Z,8.63
